Time;durP1;ratioP1;P1;durP2;ratioP2;P2;SDS_P1;SDS_P2;PMS_P1;PMS_P2;Temp;Humidity;BMP_temperature;BMP_pressure;BME280_temperature;BME280_humidity;BME280_pressure;Samples;Min_cycle;Max_cycle;Signal;HPM_P1;HPM_P2
2024/04/26 00:00:55;;;;;;;9.80;3.72;;;;;;;0.23;100.00;96243.09;5469608;26;20036;-59
2024/04/26 00:03:21;;;;;;;6.00;3.22;;;;;;;0.41;100.00;96236.25;5465170;26;19995;-60
2024/04/26 00:05:48;;;;;;;9.60;3.45;;;;;;;0.50;100.00;96236.78;5457033;26;20448;-60
2024/04/26 00:08:16;;;;;;;5.97;3.47;;;;;;;0.60;100.00;96242.47;5453929;26;20411;-59
2024/04/26 00:10:43;;;;;;;7.57;3.10;;;;;;;0.77;100.00;96244.56;5427515;26;19995;-61
2024/04/26 00:13:10;;;;;;;5.35;2.80;;;;;;;0.91;100.00;96237.28;5428411;26;20436;-60
2024/04/26 00:15:37;;;;;;;6.70;3.42;;;;;;;1.18;100.00;96239.72;5425666;26;20547;-57
2024/04/26 00:18:04;;;;;;;6.45;2.53;;;;;;;1.27;100.00;96234.94;5442888;26;20358;-59
2024/04/26 00:20:32;;;;;;;5.10;2.92;;;;;;;1.29;100.00;96227.53;5435260;26;20003;-59
2024/04/26 00:22:58;;;;;;;5.45;2.85;;;;;;;1.25;100.00;96232.47;5430422;26;20009;-59
2024/04/26 00:25:25;;;;;;;7.22;3.03;;;;;;;1.22;100.00;96222.25;5441500;26;20010;-60
2024/04/26 00:27:52;;;;;;;7.18;3.63;;;;;;;1.22;100.00;96224.13;5442687;26;20014;-60
2024/04/26 00:30:18;;;;;;;9.52;3.45;;;;;;;1.18;100.00;96218.38;5436818;26;20029;-60
2024/04/26 00:32:45;;;;;;;8.15;3.35;;;;;;;1.09;100.00;96215.19;5435350;26;20015;-59
2024/04/26 00:35:12;;;;;;;9.07;3.67;;;;;;;1.04;100.00;96215.06;5444742;26;20003;-59
2024/04/26 00:37:39;;;;;;;6.90;3.45;;;;;;;1.04;100.00;96223.06;5462962;26;20051;-60
2024/04/26 00:40:06;;;;;;;4.82;2.75;;;;;;;1.03;100.00;96224.06;5457331;26;20482;-60
2024/04/26 00:42:33;;;;;;;7.88;3.17;;;;;;;1.03;100.00;96219.56;5461855;26;20002;-60
2024/04/26 00:44:59;;;;;;;7.72;3.20;;;;;;;0.96;100.00;96213.47;5433777;26;20022;-60
2024/04/26 00:47:27;;;;;;;7.10;3.05;;;;;;;0.85;100.00;96209.66;5450914;26;20416;-60
2024/04/26 00:49:53;;;;;;;7.20;3.30;;;;;;;0.76;100.00;96208.31;5445304;26;20079;-60
2024/04/26 00:52:20;;;;;;;8.70;3.38;;;;;;;0.56;100.00;96201.31;5446197;26;20587;-60
2024/04/26 00:54:49;;;;;;;6.72;3.63;;;;;;;0.52;100.00;96205.44;5423912;26;20179;-60
2024/04/26 00:57:16;;;;;;;6.68;3.22;;;;;;;0.37;100.00;96203.09;5459032;26;20007;-60
2024/04/26 00:59:43;;;;;;;6.45;3.40;;;;;;;0.30;100.00;96208.47;5446470;26;20003;-60
2024/04/26 01:02:12;;;;;;;7.25;3.05;;;;;;;0.24;100.00;96203.97;5446893;26;20597;-60
2024/04/26 01:04:39;;;;;;;6.80;3.17;;;;;;;0.16;100.00;96196.25;5446759;26;20072;-60
2024/04/26 01:07:06;;;;;;;8.48;3.38;;;;;;;0.14;100.00;96201.78;5456500;26;20009;-58
2024/04/26 01:09:32;;;;;;;7.00;3.38;;;;;;;0.12;100.00;96201.19;5421228;26;20010;-60
2024/04/26 01:11:59;;;;;;;7.15;3.42;;;;;;;0.15;100.00;96194.63;5434221;26;20011;-61
2024/04/26 01:14:27;;;;;;;7.15;3.50;;;;;;;0.10;100.00;96195.25;5445471;26;20007;-60
2024/04/26 01:16:53;;;;;;;9.00;3.05;;;;;;;0.14;100.00;96193.78;5446383;26;20013;-60
2024/04/26 01:19:20;;;;;;;5.57;2.83;;;;;;;0.12;100.00;96201.19;5441339;26;20003;-59
2024/04/26 01:21:47;;;;;;;7.63;3.67;;;;;;;0.12;100.00;96194.00;5447643;26;20065;-59
2024/04/26 01:24:14;;;;;;;6.20;3.05;;;;;;;0.11;100.00;96195.03;5442977;26;20062;-61
2024/04/26 01:26:41;;;;;;;6.00;3.00;;;;;;;0.23;100.00;96197.03;5466719;26;20519;-60
2024/04/26 01:29:11;;;;;;;6.72;2.88;;;;;;;0.35;100.00;96195.31;5453815;26;20003;-60
2024/04/26 01:31:38;;;;;;;6.22;3.35;;;;;;;0.43;100.00;96196.88;5446928;26;19998;-60
2024/04/26 01:34:04;;;;;;;9.30;3.63;;;;;;;0.49;100.00;96195.22;5452602;26;20067;-60
2024/04/26 01:36:31;;;;;;;7.72;3.20;;;;;;;0.50;100.00;96210.97;5432550;26;20057;-60
2024/04/26 01:38:57;;;;;;;6.93;3.90;;;;;;;0.53;100.00;96212.41;5444580;26;19999;-60
2024/04/26 01:41:25;;;;;;;5.50;3.05;;;;;;;0.54;100.00;96221.19;5440179;26;20013;-60
2024/04/26 01:43:52;;;;;;;8.90;3.22;;;;;;;0.61;100.00;96222.78;5436203;26;20014;-59
2024/04/26 01:46:19;;;;;;;7.97;3.85;;;;;;;0.60;100.00;96223.81;5437809;26;22088;-59
2024/04/26 01:48:45;;;;;;;8.40;3.83;;;;;;;0.70;100.00;96228.66;5468475;26;20026;-59
2024/04/26 01:51:12;;;;;;;9.75;4.07;;;;;;;0.75;100.00;96222.69;5438467;26;20462;-60
2024/04/26 01:53:39;;;;;;;7.82;3.17;;;;;;;0.85;100.00;96214.19;5442069;26;19998;-59
2024/04/26 01:56:06;;;;;;;9.05;3.80;;;;;;;0.97;100.00;96208.97;5450123;26;20492;-60
2024/04/26 01:58:35;;;;;;;7.00;3.67;;;;;;;1.01;100.00;96205.66;5441883;26;20053;-60
2024/04/26 02:01:02;;;;;;;9.10;3.85;;;;;;;1.00;100.00;96205.84;5451655;26;20079;-61
2024/04/26 02:03:29;;;;;;;8.00;3.75;;;;;;;1.11;100.00;96209.66;5438592;26;20007;-60
2024/04/26 02:05:55;;;;;;;7.72;3.55;;;;;;;1.12;100.00;96211.28;5449560;26;20021;-60
2024/04/26 02:08:22;;;;;;;8.43;3.83;;;;;;;1.14;100.00;96210.03;5446841;26;20061;-60
2024/04/26 02:10:48;;;;;;;7.65;3.22;;;;;;;1.28;100.00;96207.22;5450722;26;20014;-61
2024/04/26 02:13:15;;;;;;;8.38;3.58;;;;;;;1.25;100.00;96195.13;5442669;26;20076;-60
2024/04/26 02:15:42;;;;;;;7.07;3.30;;;;;;;1.17;100.00;96193.59;5454961;26;20023;-60
2024/04/26 02:18:09;;;;;;;5.80;3.22;;;;;;;1.19;100.00;96198.69;5442419;26;20011;-60
2024/04/26 02:20:35;;;;;;;10.45;4.32;;;;;;;1.27;100.00;96181.59;5452729;26;19998;-60
2024/04/26 02:23:02;;;;;;;6.40;3.38;;;;;;;1.23;100.00;96189.22;5444924;26;20014;-60
2024/04/26 02:25:29;;;;;;;7.32;3.72;;;;;;;1.24;100.00;96198.03;5444254;26;20010;-60
2024/04/26 02:27:55;;;;;;;11.43;3.42;;;;;;;1.31;100.00;96196.13;5460068;26;20067;-60
2024/04/26 02:30:22;;;;;;;6.47;2.97;;;;;;;1.28;100.00;96193.88;5455699;26;20017;-60
2024/04/26 02:32:48;;;;;;;4.20;2.70;;;;;;;1.22;100.00;96197.44;5460023;26;20127;-60
2024/04/26 02:35:15;;;;;;;5.63;3.00;;;;;;;1.25;100.00;96189.81;5436887;26;20015;-60
2024/04/26 02:37:42;;;;;;;6.28;3.17;;;;;;;1.33;100.00;96174.56;5435020;26;20009;-59
2024/04/26 02:40:09;;;;;;;9.00;3.28;;;;;;;1.27;100.00;96178.91;5443602;26;20023;-58
2024/04/26 02:42:35;;;;;;;6.88;3.08;;;;;;;1.26;100.00;96183.44;5470408;26;20016;-60
2024/04/26 02:45:02;;;;;;;6.03;3.63;;;;;;;1.27;100.00;96186.91;5410663;26;20079;-59
2024/04/26 02:47:29;;;;;;;5.85;2.97;;;;;;;1.41;100.00;96199.06;5431260;26;20758;-60
2024/04/26 02:49:56;;;;;;;7.40;2.85;;;;;;;1.49;100.00;96189.13;5441361;26;20427;-60
2024/04/26 02:52:22;;;;;;;7.38;3.00;;;;;;;1.62;100.00;96196.97;5440834;26;20013;-60
2024/04/26 02:54:49;;;;;;;6.18;3.08;;;;;;;1.59;100.00;96191.28;5449819;26;19998;-59
2024/04/26 02:57:16;;;;;;;7.78;3.90;;;;;;;1.58;100.00;96198.47;5449813;26;20362;-59
2024/04/26 02:59:42;;;;;;;5.22;2.97;;;;;;;1.54;100.00;96190.09;5444215;26;20696;-59
2024/04/26 03:02:13;;;;;;;5.95;3.15;;;;;;;1.63;100.00;96176.47;5435175;26;20009;-59
2024/04/26 03:04:40;;;;;;;4.57;2.90;;;;;;;1.60;100.00;96175.06;5453783;26;20013;-59
2024/04/26 03:07:10;;;;;;;8.68;3.03;;;;;;;1.54;100.00;96167.94;5429168;26;20006;-59
2024/04/26 03:09:40;;;;;;;7.57;3.08;;;;;;;1.48;100.00;96163.50;5448495;26;20011;-59
2024/04/26 03:12:07;;;;;;;8.25;3.08;;;;;;;1.44;100.00;96168.50;5440171;26;20017;-59
2024/04/26 03:14:33;;;;;;;6.10;2.70;;;;;;;1.35;100.00;96159.97;5466065;26;20015;-59
2024/04/26 03:17:00;;;;;;;7.18;2.83;;;;;;;1.35;100.00;96159.13;5416494;26;20071;-59
2024/04/26 03:19:27;;;;;;;4.78;2.80;;;;;;;1.36;100.00;96158.91;5437653;26;20011;-60
2024/04/26 03:21:54;;;;;;;4.85;3.03;;;;;;;1.38;100.00;96162.19;5453860;26;20002;-59
2024/04/26 03:24:20;;;;;;;5.40;2.45;;;;;;;1.43;100.00;96166.84;5429463;26;20026;-59
2024/04/26 03:26:47;;;;;;;6.47;3.00;;;;;;;1.32;100.00;96162.25;5430113;26;20015;-59
2024/04/26 03:29:14;;;;;;;6.38;3.35;;;;;;;1.27;100.00;96154.91;5460869;26;20015;-59
2024/04/26 03:31:40;;;;;;;6.57;3.40;;;;;;;1.26;100.00;96161.28;5467821;26;20004;-59
2024/04/26 03:34:07;;;;;;;5.68;2.78;;;;;;;1.29;100.00;96159.00;5440088;26;20003;-59
2024/04/26 03:36:34;;;;;;;6.40;3.45;;;;;;;1.40;100.00;96161.97;5469456;26;20044;-60
2024/04/26 03:39:01;;;;;;;9.57;3.30;;;;;;;1.54;100.00;96157.25;5457344;26;20070;-60
2024/04/26 03:41:27;;;;;;;4.47;2.63;;;;;;;1.61;100.00;96159.84;5449591;26;20007;-60
2024/04/26 03:43:54;;;;;;;6.35;2.95;;;;;;;1.66;100.00;96154.69;5463092;26;20009;-60
2024/04/26 03:46:21;;;;;;;8.75;3.15;;;;;;;1.64;100.00;96144.22;5473418;26;20031;-60
2024/04/26 03:48:47;;;;;;;6.43;3.15;;;;;;;1.68;100.00;96145.41;5464236;26;20014;-60
2024/04/26 03:51:14;;;;;;;8.38;2.35;;;;;;;1.80;100.00;96153.44;5459057;26;20014;-60
2024/04/26 03:53:42;;;;;;;6.90;2.65;;;;;;;1.95;100.00;96152.22;5460649;26;20060;-60
2024/04/26 03:56:08;;;;;;;8.55;3.28;;;;;;;1.83;100.00;96146.06;5460509;26;20480;-60
2024/04/26 03:58:39;;;;;;;11.43;3.00;;;;;;;1.83;100.00;96144.19;5450675;26;20016;-60
2024/04/26 04:01:06;;;;;;;5.63;2.33;;;;;;;1.98;100.00;96151.78;5450795;26;20010;-60
2024/04/26 04:03:33;;;;;;;5.72;2.85;;;;;;;2.12;100.00;96155.06;5459329;26;20006;-60
2024/04/26 04:05:59;;;;;;;8.88;3.00;;;;;;;2.15;100.00;96153.81;5455519;26;20010;-60
2024/04/26 04:08:26;;;;;;;8.75;3.58;;;;;;;2.08;100.00;96146.72;5461321;26;20384;-60
2024/04/26 04:10:53;;;;;;;7.78;3.42;;;;;;;2.11;100.00;96153.44;5471460;26;20417;-60
2024/04/26 04:13:19;;;;;;;6.88;3.22;;;;;;;2.13;100.00;96153.22;5461073;26;20018;-59
2024/04/26 04:15:46;;;;;;;10.15;3.70;;;;;;;2.06;100.00;96147.97;5444745;26;20007;-60
2024/04/26 04:18:16;;;;;;;10.35;3.40;;;;;;;2.06;100.00;96145.28;5448601;26;20673;-60
2024/04/26 04:20:43;;;;;;;8.00;2.95;;;;;;;1.96;100.00;96137.84;5452890;26;20007;-60
2024/04/26 04:23:09;;;;;;;9.38;3.72;;;;;;;1.93;100.00;96138.28;5447528;26;20042;-59
2024/04/26 04:25:36;;;;;;;6.05;2.75;;;;;;;2.02;100.00;96139.59;5468909;26;20003;-59
2024/04/26 04:28:03;;;;;;;6.43;3.45;;;;;;;2.09;100.00;96136.81;5460553;26;20748;-60
2024/04/26 04:30:30;;;;;;;6.30;2.75;;;;;;;2.08;100.00;96132.53;5446910;26;20013;-60
2024/04/26 04:32:57;;;;;;;5.20;2.75;;;;;;;2.17;100.00;96139.19;5443470;26;20011;-60
2024/04/26 04:35:24;;;;;;;6.53;3.20;;;;;;;2.25;100.00;96127.34;5427442;26;20012;-59
2024/04/26 04:37:51;;;;;;;5.90;2.83;;;;;;;2.32;100.00;96133.41;5448853;26;20009;-60
2024/04/26 04:40:18;;;;;;;6.28;2.92;;;;;;;2.37;100.00;96134.56;5439985;26;20074;-60
2024/04/26 04:42:44;;;;;;;7.32;2.60;;;;;;;2.40;100.00;96134.13;5456523;26;20497;-60
2024/04/26 04:45:11;;;;;;;9.05;2.97;;;;;;;2.48;100.00;96131.09;5459664;26;20117;-59
2024/04/26 04:47:38;;;;;;;7.15;2.92;;;;;;;2.47;100.00;96130.28;5451413;26;20027;-60
2024/04/26 04:50:05;;;;;;;4.95;2.40;;;;;;;2.52;100.00;96129.59;5428816;26;20011;-60
2024/04/26 04:52:31;;;;;;;8.90;3.05;;;;;;;2.61;100.00;96130.06;5437892;26;20056;-60
2024/04/26 04:54:58;;;;;;;4.22;2.30;;;;;;;2.58;100.00;96138.56;5438134;26;20003;-59
2024/04/26 04:57:24;;;;;;;5.32;2.65;;;;;;;2.55;100.00;96137.13;5446787;26;20006;-60
2024/04/26 04:59:51;;;;;;;5.95;2.60;;;;;;;2.64;100.00;96123.44;5461175;26;20009;-59
2024/04/26 05:02:18;;;;;;;6.80;2.65;;;;;;;2.62;100.00;96126.38;5435853;26;20002;-60
2024/04/26 05:04:45;;;;;;;6.57;2.60;;;;;;;2.62;100.00;96133.56;5423109;26;20071;-59
2024/04/26 05:07:11;;;;;;;4.78;2.30;;;;;;;2.67;100.00;96134.50;5444333;26;19998;-60
2024/04/26 05:09:38;;;;;;;4.65;2.60;;;;;;;2.68;100.00;96130.78;5455497;26;20002;-60
2024/04/26 05:12:07;;;;;;;9.20;2.60;;;;;;;2.80;100.00;96143.34;5445829;26;20013;-61
2024/04/26 05:14:34;;;;;;;6.30;2.55;;;;;;;2.77;100.00;96135.78;5446366;26;20030;-60
2024/04/26 05:17:01;;;;;;;9.68;2.63;;;;;;;2.78;100.00;96142.72;5458111;26;20615;-61
2024/04/26 05:19:28;;;;;;;6.55;3.13;;;;;;;2.65;100.00;96152.59;5454260;26;20009;-60
2024/04/26 05:21:55;;;;;;;6.80;2.63;;;;;;;2.61;100.00;96146.09;5443173;26;20275;-60
2024/04/26 05:24:25;;;;;;;5.45;2.65;;;;;;;2.69;100.00;96140.41;5457572;26;20066;-60
2024/04/26 05:26:55;;;;;;;11.55;2.88;;;;;;;2.84;100.00;96139.16;5459288;26;19998;-60
2024/04/26 05:29:23;;;;;;;5.28;2.80;;;;;;;2.91;100.00;96139.81;5437265;26;20693;-61
2024/04/26 05:31:50;;;;;;;5.75;2.60;;;;;;;2.96;100.00;96145.31;5432373;26;20066;-61
2024/04/26 05:34:16;;;;;;;8.65;2.38;;;;;;;3.09;100.00;96146.09;5460547;26;19998;-60
2024/04/26 05:36:44;;;;;;;6.93;3.17;;;;;;;3.15;100.00;96144.34;5457337;26;19999;-61
2024/04/26 05:39:10;;;;;;;6.25;3.60;;;;;;;3.07;100.00;96140.16;5453784;26;20002;-60
2024/04/26 05:41:37;;;;;;;7.07;3.40;;;;;;;3.06;100.00;96141.22;5444805;26;20010;-60
2024/04/26 05:44:04;;;;;;;7.15;3.03;;;;;;;3.18;100.00;96143.88;5438547;26;20014;-60
2024/04/26 05:46:30;;;;;;;8.52;3.47;;;;;;;3.32;100.00;96147.13;5453927;26;20006;-61
2024/04/26 05:48:57;;;;;;;7.53;3.55;;;;;;;3.27;100.00;96147.03;5406017;26;20083;-61
2024/04/26 05:51:24;;;;;;;5.18;2.50;;;;;;;3.32;100.00;96145.25;5439638;26;20012;-61
2024/04/26 05:53:53;;;;;;;5.72;2.60;;;;;;;3.40;100.00;96138.72;5438170;26;20042;-60
2024/04/26 05:56:20;;;;;;;4.85;2.38;;;;;;;3.48;100.00;96141.03;5449486;26;20003;-61
2024/04/26 05:58:47;;;;;;;7.97;2.80;;;;;;;3.80;100.00;96138.94;5436869;26;20003;-61
2024/04/26 06:01:14;;;;;;;4.63;2.50;;;;;;;4.06;100.00;96147.47;5450073;26;20003;-61
2024/04/26 06:03:40;;;;;;;6.40;2.88;;;;;;;4.22;100.00;96144.00;5462413;26;19999;-61
2024/04/26 06:06:07;;;;;;;6.40;2.50;;;;;;;4.33;100.00;96144.16;5445418;26;20006;-61
2024/04/26 06:08:35;;;;;;;5.30;2.55;;;;;;;4.19;100.00;96141.78;5440650;26;20013;-60
2024/04/26 06:11:03;;;;;;;8.35;2.65;;;;;;;4.23;100.00;96147.47;5450707;26;20003;-61
2024/04/26 06:13:29;;;;;;;11.48;2.83;;;;;;;4.36;100.00;96149.03;5441583;26;20080;-61
2024/04/26 06:16:02;;;;;;;6.10;2.40;;;;;;;4.59;100.00;96148.09;5446166;26;20002;-61
2024/04/26 06:18:29;;;;;;;5.07;2.10;;;;;;;4.63;100.00;96151.09;5459523;26;21715;-61
2024/04/26 06:20:56;;;;;;;5.05;2.15;;;;;;;4.77;100.00;96154.25;5442986;26;20450;-61
2024/04/26 06:23:22;;;;;;;6.95;2.90;;;;;;;4.75;100.00;96159.84;5460287;26;20011;-61
2024/04/26 06:25:49;;;;;;;5.70;2.40;;;;;;;4.91;100.00;96154.75;5464910;26;19998;-61
2024/04/26 06:28:16;;;;;;;7.70;2.25;;;;;;;4.90;100.00;96158.47;5450134;26;20013;-61
2024/04/26 06:30:42;;;;;;;6.50;2.55;;;;;;;4.87;100.00;96162.44;5462390;26;19998;-61
2024/04/26 06:33:09;;;;;;;6.85;2.72;;;;;;;4.90;100.00;96161.97;5427992;26;20011;-61
2024/04/26 06:35:42;;;;;;;5.85;2.50;;;;;;;5.02;100.00;96164.53;5437414;26;20009;-61
2024/04/26 06:38:10;;;;;;;8.20;2.42;;;;;;;5.19;100.00;96163.69;5468723;26;20578;-61
2024/04/26 06:40:38;;;;;;;3.88;2.17;;;;;;;5.31;100.00;96166.31;5441470;26;20013;-61
2024/04/26 06:43:05;;;;;;;6.85;2.53;;;;;;;5.42;100.00;96175.31;5454427;26;19997;-61
2024/04/26 06:45:31;;;;;;;3.58;2.08;;;;;;;5.42;100.00;96169.94;5450255;26;19999;-61
2024/04/26 06:47:58;;;;;;;5.13;2.42;;;;;;;5.56;100.00;96171.19;5447695;26;20513;-61
2024/04/26 06:50:25;;;;;;;4.90;2.40;;;;;;;5.42;100.00;96169.94;5451815;26;20002;-61
2024/04/26 06:52:52;;;;;;;5.80;2.63;;;;;;;5.37;100.00;96173.34;5457563;26;20010;-61
2024/04/26 06:55:18;;;;;;;4.35;2.20;;;;;;;5.40;100.00;96172.03;5450967;26;20003;-61
2024/04/26 06:57:45;;;;;;;5.85;2.00;;;;;;;5.54;100.00;96176.00;5448994;26;20064;-61
2024/04/26 07:00:11;;;;;;;4.85;2.17;;;;;;;5.58;100.00;96176.31;5453352;26;20051;-61
2024/04/26 07:02:38;;;;;;;6.03;2.50;;;;;;;5.56;100.00;96184.59;5464573;26;20038;-61
2024/04/26 07:05:06;;;;;;;5.53;2.38;;;;;;;5.78;100.00;96177.63;5439963;26;20025;-61
2024/04/26 07:07:32;;;;;;;4.97;2.30;;;;;;;5.77;100.00;96181.34;5452914;26;20085;-61
2024/04/26 07:10:00;;;;;;;4.95;2.47;;;;;;;5.81;100.00;96180.63;5427683;26;20003;-61
2024/04/26 07:12:27;;;;;;;5.03;2.05;;;;;;;5.87;100.00;96181.50;5446047;26;20463;-61
2024/04/26 07:14:53;;;;;;;4.93;2.33;;;;;;;5.91;100.00;96193.38;5454678;26;20012;-61
2024/04/26 07:17:20;;;;;;;7.03;2.65;;;;;;;6.10;100.00;96191.19;5461734;26;19999;-61
2024/04/26 07:19:49;;;;;;;6.30;2.20;;;;;;;6.11;100.00;96186.59;5444320;26;20006;-61
2024/04/26 07:22:16;;;;;;;3.45;2.00;;;;;;;6.22;100.00;96185.66;5454898;26;20011;-61
2024/04/26 07:24:43;;;;;;;5.80;2.38;;;;;;;6.31;100.00;96191.41;5461935;26;20047;-61
2024/04/26 07:27:10;;;;;;;3.65;1.90;;;;;;;6.49;100.00;96190.22;5440313;26;20422;-61
2024/04/26 07:29:37;;;;;;;4.03;2.03;;;;;;;6.60;100.00;96188.41;5439719;26;19999;-60
2024/04/26 07:32:04;;;;;;;4.38;1.85;;;;;;;6.73;100.00;96189.06;5433616;26;20034;-61
2024/04/26 07:34:30;;;;;;;3.78;1.80;;;;;;;6.92;100.00;96186.78;5447314;26;20013;-61
2024/04/26 07:36:57;;;;;;;4.82;1.75;;;;;;;7.19;100.00;96193.19;5464092;26;20011;-61
2024/04/26 07:39:24;;;;;;;6.07;1.80;;;;;;;7.40;100.00;96186.03;5445492;26;20024;-61
2024/04/26 07:41:50;;;;;;;4.22;1.80;;;;;;;7.66;100.00;96189.66;5453859;26;20027;-61
2024/04/26 07:44:17;;;;;;;3.78;1.30;;;;;;;7.82;100.00;96187.06;5456394;26;20043;-61
2024/04/26 07:46:44;;;;;;;3.05;1.67;;;;;;;7.86;100.00;96190.03;5449906;26;20021;-61
2024/04/26 07:49:10;;;;;;;4.40;1.60;;;;;;;7.89;100.00;96195.69;5457342;26;20014;-61
2024/04/26 07:51:39;;;;;;;3.53;1.63;;;;;;;7.97;100.00;96188.19;5443166;26;20527;-61
2024/04/26 07:54:05;;;;;;;3.05;1.30;;;;;;;7.85;100.00;96191.91;5465484;26;20010;-61
2024/04/26 07:56:33;;;;;;;3.55;1.80;;;;;;;7.61;100.00;96194.22;5459376;26;20811;-60
2024/04/26 07:59:00;;;;;;;2.97;1.58;;;;;;;7.53;100.00;96187.47;5436330;26;19998;-61
2024/04/26 08:01:27;;;;;;;3.88;1.88;;;;;;;7.44;100.00;96192.50;5448294;26;20035;-61
2024/04/26 08:03:53;;;;;;;3.45;2.05;;;;;;;7.35;100.00;96181.44;5446160;26;20010;-61
2024/04/26 08:06:21;;;;;;;4.40;2.03;;;;;;;7.36;100.00;96184.91;5457045;26;19999;-61
2024/04/26 08:08:48;;;;;;;3.55;1.70;;;;;;;7.34;100.00;96195.94;5445788;26;20009;-61
2024/04/26 08:11:15;;;;;;;5.35;2.30;;;;;;;7.31;100.00;96192.97;5448343;26;20006;-61
2024/04/26 08:13:43;;;;;;;3.30;1.80;;;;;;;7.50;100.00;96196.88;5440929;26;20006;-61
2024/04/26 08:16:09;;;;;;;4.32;1.70;;;;;;;7.62;100.00;96188.56;5438656;26;19998;-61
2024/04/26 08:18:36;;;;;;;4.25;2.08;;;;;;;7.90;100.00;96186.56;5432205;26;20018;-61
2024/04/26 08:21:03;;;;;;;4.30;2.05;;;;;;;8.13;100.00;96197.13;5450597;26;20393;-61
2024/04/26 08:23:30;;;;;;;3.45;1.80;;;;;;;8.36;100.00;96201.22;5458205;26;20100;-61
2024/04/26 08:26:02;;;;;;;3.95;1.63;;;;;;;8.36;100.00;96195.03;5452807;26;20017;-61
2024/04/26 08:28:30;;;;;;;3.92;1.73;;;;;;;8.34;100.00;96200.69;5460176;26;20031;-61
2024/04/26 08:30:58;;;;;;;3.85;1.77;;;;;;;8.36;100.00;96200.44;5452576;26;20014;-61
2024/04/26 08:33:24;;;;;;;7.57;1.77;;;;;;;8.76;100.00;96190.78;5460457;26;20011;-61
2024/04/26 08:35:51;;;;;;;4.57;2.38;;;;;;;9.16;100.00;96196.44;5452698;26;20005;-61
2024/04/26 08:38:19;;;;;;;4.32;2.20;;;;;;;9.34;100.00;96197.78;5446540;26;20050;-61
2024/04/26 08:40:46;;;;;;;7.43;1.95;;;;;;;9.63;100.00;96205.25;5448158;26;20003;-61
2024/04/26 08:43:13;;;;;;;3.90;1.73;;;;;;;10.14;100.00;96205.38;5453779;26;20037;-61
2024/04/26 08:45:43;;;;;;;4.07;1.85;;;;;;;10.46;100.00;96203.34;5458913;26;20002;-61
2024/04/26 08:48:11;;;;;;;3.92;1.70;;;;;;;10.17;100.00;96204.00;5463334;26;20007;-61
2024/04/26 08:50:39;;;;;;;5.32;1.85;;;;;;;10.09;100.00;96208.88;5467438;26;20074;-61
2024/04/26 08:53:07;;;;;;;11.20;2.20;;;;;;;9.96;100.00;96204.09;5457323;26;20031;-61
2024/04/26 08:55:35;;;;;;;3.65;1.95;;;;;;;9.91;100.00;96198.69;5470065;26;20015;-61
2024/04/26 08:58:03;;;;;;;4.85;1.65;;;;;;;9.88;100.00;96208.19;5456324;26;20006;-61
2024/04/26 09:00:33;;;;;;;3.10;1.70;;;;;;;10.19;100.00;96212.63;5441642;26;19998;-61
2024/04/26 09:03:00;;;;;;;3.72;1.60;;;;;;;10.07;100.00;96213.78;5461322;26;20035;-61
2024/04/26 09:05:29;;;;;;;3.80;1.67;;;;;;;10.10;100.00;96212.41;5449843;26;20044;-61
2024/04/26 09:07:58;;;;;;;3.05;1.48;;;;;;;10.59;100.00;96218.13;5461036;26;20011;-61
2024/04/26 09:10:26;;;;;;;4.57;1.85;;;;;;;10.89;100.00;96217.13;5455233;26;20679;-61
2024/04/26 09:12:53;;;;;;;4.43;1.48;;;;;;;11.00;100.00;96219.72;5453054;26;20011;-61
2024/04/26 09:15:30;;;;;;;3.53;1.55;;;;;;;10.76;100.00;96225.88;5472444;26;20031;-61
2024/04/26 09:17:56;;;;;;;3.55;1.42;;;;;;;10.79;100.00;96212.56;5465910;26;20013;-61
2024/04/26 09:20:25;;;;;;;4.05;1.50;;;;;;;10.71;100.00;96212.34;5447851;26;20076;-61
2024/04/26 09:22:52;;;;;;;3.72;1.67;;;;;;;10.87;100.00;96221.19;5422188;26;20003;-61
2024/04/26 09:25:18;;;;;;;3.83;1.75;;;;;;;10.84;100.00;96222.53;5454183;26;20034;-62
2024/04/26 09:27:45;;;;;;;4.65;1.60;;;;;;;10.54;100.00;96232.47;5470839;26;20064;-62
2024/04/26 09:30:12;;;;;;;3.38;1.73;;;;;;;10.70;100.00;96229.69;5449528;26;20013;-61
2024/04/26 09:32:39;;;;;;;5.32;1.80;;;;;;;10.76;100.00;96223.16;5440609;26;20224;-62
2024/04/26 09:35:20;;;;;;;5.57;1.83;;;;;;;11.05;100.00;96231.34;5430883;26;20018;-61
2024/04/26 09:37:51;;;;;;;3.50;1.48;;;;;;;11.25;100.00;96224.13;5473073;26;19999;-62
2024/04/26 09:40:21;;;;;;;3.17;1.90;;;;;;;11.34;100.00;96229.72;5461310;26;19998;-61
2024/04/26 09:42:52;;;;;;;3.42;1.48;;;;;;;11.55;100.00;96224.13;5455082;26;20010;-61
2024/04/26 09:45:21;;;;;;;4.18;1.40;;;;;;;11.65;100.00;96226.72;5459941;26;20084;-62
2024/04/26 09:47:50;;;;;;;4.03;1.50;;;;;;;11.70;100.00;96231.28;5451284;26;20009;-62
2024/04/26 09:50:18;;;;;;;3.08;1.42;;;;;;;11.82;100.00;96226.28;5450946;26;20003;-61
2024/04/26 09:52:49;;;;;;;4.22;1.52;;;;;;;12.06;100.00;96221.97;5458002;26;20014;-61
2024/04/26 09:55:22;;;;;;;5.07;1.40;;;;;;;12.59;98.18;96225.63;5439554;26;20003;-62
2024/04/26 09:57:50;;;;;;;4.00;1.48;;;;;;;12.69;95.34;96230.94;5469001;26;20018;-61
2024/04/26 10:00:18;;;;;;;2.75;1.50;;;;;;;12.43;93.85;96219.59;5448094;26;20011;-61
2024/04/26 10:02:50;;;;;;;3.55;1.40;;;;;;;12.30;95.78;96224.66;5449216;26;20014;-62
2024/04/26 10:05:20;;;;;;;4.03;1.73;;;;;;;12.69;95.37;96230.94;5434339;26;20003;-61
2024/04/26 10:07:58;;;;;;;5.70;1.53;;;;;;;12.72;90.82;96224.09;5468925;26;20048;-61
2024/04/26 10:10:29;;;;;;;2.88;1.40;;;;;;;12.79;89.24;96223.72;5461588;26;20269;-61
2024/04/26 10:13:03;;;;;;;3.67;1.65;;;;;;;12.52;98.46;96215.13;5446212;26;20003;-61
2024/04/26 10:15:30;;;;;;;3.20;1.70;;;;;;;12.58;99.47;96222.13;5474335;26;20723;-61
2024/04/26 10:17:57;;;;;;;7.80;1.75;;;;;;;12.83;98.21;96220.09;5476619;26;20017;-62
2024/04/26 10:20:26;;;;;;;3.60;1.90;;;;;;;12.93;95.13;96213.72;5454607;26;20502;-61
2024/04/26 10:23:10;;;;;;;1.95;1.30;;;;;;;13.05;92.09;96223.31;5455025;26;20003;-61
2024/04/26 10:25:37;;;;;;;2.42;1.42;;;;;;;12.51;92.00;96227.09;5460013;26;20025;-61
2024/04/26 10:28:09;;;;;;;3.20;1.45;;;;;;;11.83;95.21;96233.31;5453787;26;19999;-61
2024/04/26 10:30:35;;;;;;;;;;;;;;;11.85;97.73;96230.31;5438222;26;20028;-61
2024/04/26 10:33:03;;;;;;;2.65;1.42;;;;;;;11.83;98.55;96232.50;5438556;26;19944;-61
2024/04/26 10:35:30;;;;;;;5.93;1.63;;;;;;;11.54;99.41;96228.72;5457815;26;20054;-61
2024/04/26 10:37:59;;;;;;;3.70;1.27;;;;;;;11.72;97.69;96234.50;5447131;26;19999;-61
2024/04/26 10:40:26;;;;;;;3.13;1.25;;;;;;;11.51;99.58;96231.22;5453761;26;19999;-61
2024/04/26 10:42:54;;;;;;;3.80;1.63;;;;;;;11.52;100.00;96235.53;5446201;26;20044;-61
2024/04/26 10:45:22;;;;;;;3.17;1.23;;;;;;;11.63;100.00;96230.81;5448606;26;20067;-61
2024/04/26 10:47:53;;;;;;;4.22;1.38;;;;;;;11.60;100.00;96236.84;5442551;26;20604;-61
2024/04/26 10:50:20;;;;;;;2.00;1.23;;;;;;;11.44;99.00;96234.25;5462087;26;20013;-61
2024/04/26 10:52:46;;;;;;;2.95;1.50;;;;;;;11.13;100.00;96234.53;5440039;26;20009;-62
2024/04/26 10:55:14;;;;;;;3.28;1.42;;;;;;;11.20;100.00;96237.72;5465193;26;20010;-61
2024/04/26 10:57:42;;;;;;;2.55;1.30;;;;;;;11.22;98.93;96242.84;5457576;26;20403;-61
2024/04/26 11:00:11;;;;;;;3.75;1.50;;;;;;;11.14;93.79;96236.16;5457069;26;19999;-61
2024/04/26 11:02:38;;;;;;;3.92;1.20;;;;;;;11.23;95.30;96234.44;5429438;26;20047;-61
2024/04/26 11:05:10;;;;;;;2.38;1.30;;;;;;;11.17;91.07;96238.31;5443848;26;20370;-61
2024/04/26 11:07:38;;;;;;;2.95;1.30;;;;;;;11.23;92.90;96239.84;5452548;26;20003;-61
2024/04/26 11:10:06;;;;;;;3.47;1.50;;;;;;;11.40;92.55;96239.44;5421202;26;20002;-61
2024/04/26 11:12:40;;;;;;;2.53;1.20;;;;;;;11.57;92.13;96238.19;5443668;26;20007;-65
2024/04/26 11:15:07;;;;;;;2.72;1.15;;;;;;;11.90;91.61;96235.69;5449670;26;19995;-61
2024/04/26 11:17:34;;;;;;;3.08;1.30;;;;;;;11.66;93.29;96236.50;5464732;26;20874;-62
2024/04/26 11:20:01;;;;;;;3.03;1.33;;;;;;;11.67;92.85;96237.28;5448493;26;20010;-62
2024/04/26 11:22:28;;;;;;;2.97;1.40;;;;;;;11.58;91.13;96237.91;5469745;26;20072;-59
2024/04/26 11:24:54;;;;;;;3.30;1.38;;;;;;;11.65;87.09;96240.28;5446517;26;20016;-62
2024/04/26 11:27:21;;;;;;;4.70;1.38;;;;;;;11.64;87.16;96246.78;5468745;26;20083;-61
2024/04/26 11:29:47;;;;;;;3.58;1.10;;;;;;;11.32;86.64;96238.16;5464026;26;20450;-61
2024/04/26 11:32:16;;;;;;;2.63;1.13;;;;;;;11.22;87.36;96243.66;5473693;26;20014;-62